MST,Max TemperatureF,Mean TemperatureF,Min TemperatureF,Max Dew PointF,MeanDew PointF,Min DewpointF,Max Humidity, Mean Humidity, Min Humidity, Max Sea Level PressureIn, Mean Sea Level PressureIn, Min Sea Level PressureIn, Max VisibilityMiles, Mean VisibilityMiles, Min VisibilityMiles, Max Wind SpeedMPH, Mean Wind SpeedMPH, Max Gust SpeedMPH,PrecipitationIn, CloudCover, Events, WindDirDegrees
2012-11-1,39,37,34,38,36,34,100,96,92,30.01,29.92,29.84,,,,24,14,28,0.01,,,132
2012-11-2,56,44,31,44,35,29,100,77,54,30.12,30.00,29.91,,,,28,13,33,0.02,,,283
2012-11-3,48,39,30,36,33,30,100,81,61,30.17,30.13,30.09,,,,17,7,20,0.00,,,79
2012-11-4,58,44,30,45,35,30,100,74,47,30.25,30.09,30.01,,,,39,15,47,0.02,,,266
2012-11-5,63,45,26,47,35,25,100,72,43,30.19,30.02,29.85,,,,36,12,43,0.03,,,261
2012-11-6,53,41,29,30,26,25,92,62,32,30.19,30.12,30.03,,,,26,11,32,0.00,,,287
2012-11-7,70,50,30,36,29,23,78,51,23,30.01,29.79,29.65,,,,36,8,43,0.00,,,178
2012-11-8,45,38,31,33,30,27,92,78,64,30.03,29.96,29.81,,,,25,16,30,0.00,,,35
2012-11-9,32,30,27,31,29,26,100,93,85,29.91,29.80,29.69,,,,30,19,37,0.00,,,103
2012-11-10,28,17,6,27,15,2,100,90,80,29.98,29.82,29.68,,,,36,21,43,0.04,,,330
2012-11-11,16,10,3,9,5,-1,87,79,70,30.15,30.06,29.99,,,,37,22,44,0.00,,,289
2012-11-12,37,22,7,22,14,3,88,70,52,30.22,30.19,30.15,,,,25,13,29,0.00,,,271
2012-11-13,48,36,23,30,24,16,85,64,42,30.19,30.16,30.13,,,,23,9,29,0.00,,,262
2012-11-14,52,39,25,29,25,22,85,60,35,30.18,30.10,30.00,,,,17,8,22,0.00,,,273
2012-11-15,48,35,22,30,25,23,92,65,38,30.39,30.29,30.14,,,,22,11,26,0.00,,,170
2012-11-16,56,39,22,29,25,21,92,61,30,30.13,30.00,29.91,,,,18,5,23,0.00,,,163
2012-11-17,59,45,31,29,24,18,78,50,21,29.99,29.94,29.88,,,,12,5,14,0.00,,,65
2012-11-18,63,47,30,35,30,25,82,59,36,29.97,29.82,29.71,,,,32,10,39,0.00,,,211
2012-11-19,56,42,28,27,23,19,78,51,24,30.11,30.06,29.99,,,,14,7,17,0.00,,,194
2012-11-20,64,46,27,31,27,22,75,51,27,29.97,29.90,29.78,,,,15,7,17,0.00,,,204
2012-11-21,68,53,37,36,31,28,70,47,24,29.78,29.67,29.54,,,,26,8,32,0.00,,,254
2012-11-22,45,28,10,35,20,6,85,70,54,30.53,30.15,29.75,,,,46,24,53,0.00,,,304
2012-11-23,38,22,6,19,12,3,91,68,44,30.56,30.38,30.06,,,,15,7,18,0.00,,,173
2012-11-24,51,35,19,34,25,14,92,67,42,30.03,29.93,29.85,,,,31,12,38,0.00,,,293
2012-11-25,36,27,17,28,22,15,100,76,52,30.28,30.07,29.96,,,,18,7,21,0.00,,,336
2012-11-26,39,27,14,22,18,13,100,72,44,30.40,30.28,30.12,,,,23,10,25,0.00,,,256
2012-11-27,42,31,20,23,17,13,91,62,33,30.22,30.15,30.09,,,,16,8,20,0.00,,,276
2012-11-28,49,35,20,21,17,13,81,56,31,30.15,30.03,29.95,,,,14,5,15,0.00,,,201
2012-11-29,38,29,19,23,19,15,92,73,54,30.01,29.93,29.88,,,,12,7,13,0.00,,,94
2012-11-30,41,29,17,26,23,17,92,72,51,29.96,29.79,29.65,,,,14,7,15,0.00,,,146